createdAt,value
2018-05-15T00:02:01.549Z,23.8
2018-05-15T00:07:01.555Z,23.6
2018-05-15T00:12:01.615Z,23.4
2018-05-15T00:17:01.528Z,23.1
2018-05-15T00:22:01.551Z,24.4
2018-05-15T00:27:01.590Z,24.8
2018-05-15T00:32:01.571Z,24.9
2018-05-15T00:37:01.575Z,25.0
2018-05-15T00:42:01.597Z,25.0
2018-05-15T00:47:01.546Z,23.9
2018-05-15T00:53:01.543Z,24.2
2018-05-15T00:58:01.520Z,24.4
2018-05-15T01:03:01.688Z,24.0
2018-05-15T01:08:01.589Z,24.1
2018-05-15T01:13:01.624Z,24.0
2018-05-15T01:18:01.546Z,24.1
2018-05-15T01:23:01.536Z,23.9
2018-05-15T01:28:01.574Z,24.4
2018-05-15T01:33:01.704Z,24.5
2018-05-15T01:38:01.569Z,24.6
2018-05-15T01:43:01.664Z,24.2
2018-05-15T01:48:01.565Z,24.6
2018-05-15T01:53:01.574Z,24.3
2018-05-15T01:58:01.583Z,24.1
2018-05-15T02:04:01.528Z,23.7
2018-05-15T02:09:01.725Z,23.4
2018-05-15T02:14:01.559Z,23.0
2018-05-15T02:19:01.591Z,22.9
2018-05-15T02:24:01.506Z,22.8
2018-05-15T02:29:01.666Z,23.0
2018-05-15T02:34:01.508Z,23.3
2018-05-15T02:39:01.771Z,23.2
2018-05-15T02:44:02.307Z,23.4
2018-05-15T02:49:01.584Z,23.6
2018-05-15T02:54:01.524Z,23.4
2018-05-15T02:59:01.591Z,22.8
2018-05-15T03:04:01.497Z,23.0
2018-05-15T03:09:01.628Z,23.0
2018-05-15T03:14:02.643Z,23.0
2018-05-15T03:19:01.599Z,23.3
2018-05-15T03:24:01.538Z,24.4
2018-05-15T03:29:01.542Z,24.6
2018-05-15T03:34:01.528Z,24.2
2018-05-15T03:39:01.976Z,24.0
2018-05-15T03:44:01.557Z,23.6
2018-05-15T03:49:01.592Z,23.2
2018-05-15T03:54:01.531Z,22.9
2018-05-15T03:59:01.595Z,23.5
2018-05-15T04:25:00.749Z,25.0
2018-05-15T04:30:00.665Z,25.1
2018-05-15T04:35:01.018Z,24.7
2018-05-15T04:40:00.681Z,24.6
2018-05-15T04:45:00.696Z,24.4
2018-05-15T04:50:00.671Z,24.2
2018-05-15T04:55:00.675Z,23.8
2018-05-15T05:00:00.831Z,23.6
2018-05-15T05:10:00.743Z,23.0
2018-05-15T05:15:00.677Z,22.6
2018-05-15T05:20:00.685Z,22.6
2018-05-15T05:25:00.679Z,22.6
2018-05-15T05:30:00.758Z,22.6
2018-05-15T05:35:00.675Z,22.3
2018-05-15T05:40:00.845Z,22.4
2018-05-15T05:45:00.691Z,22.1
2018-05-15T05:50:00.685Z,21.7
2018-05-15T05:55:00.729Z,21.2
2018-05-15T06:00:00.815Z,20.8
2018-05-15T06:05:00.689Z,20.6
2018-05-15T06:10:00.748Z,20.2
2018-05-15T06:15:00.720Z,19.7
2018-05-15T06:20:00.856Z,19.2
2018-05-15T06:25:00.727Z,18.7
2018-05-15T06:30:00.739Z,18.2
2018-05-15T06:35:00.741Z,17.4
2018-05-15T06:40:00.741Z,17.3
2018-05-15T06:45:00.759Z,17.3
2018-05-15T06:50:00.863Z,16.8
2018-05-15T06:55:00.744Z,16.0
2018-05-15T07:00:00.805Z,15.4
2018-05-15T07:05:00.736Z,14.8
2018-05-15T07:10:00.945Z,14.3
2018-05-15T07:15:00.742Z,14.5
2018-05-15T07:20:00.812Z,14.2
2018-05-15T07:30:00.818Z,14.8
2018-05-15T07:40:00.787Z,15.5
2018-05-15T07:45:00.755Z,15.4
2018-05-15T07:50:00.861Z,15.0
2018-05-15T07:55:00.717Z,15.1
2018-05-15T08:00:00.791Z,14.9
2018-05-15T08:05:00.757Z,14.5
2018-05-15T08:10:00.923Z,15.2
2018-05-15T08:15:00.837Z,15.1
2018-05-15T08:20:00.959Z,15.3
2018-05-15T08:25:05.751Z,15.3
2018-05-15T08:30:00.912Z,15.4
2018-05-15T08:35:00.768Z,15.5
2018-05-15T08:40:00.908Z,15.4
2018-05-15T08:45:00.801Z,14.9
2018-05-15T08:50:00.923Z,14.8
2018-05-15T08:55:00.848Z,14.8
2018-05-15T09:00:00.847Z,14.2
2018-05-15T09:10:00.876Z,14.9
2018-05-15T09:15:00.772Z,15.0
2018-05-15T09:20:00.916Z,15.1
2018-05-15T09:25:00.856Z,15.2
2018-05-15T09:30:00.854Z,15.4
2018-05-15T09:35:00.786Z,15.4
2018-05-15T09:40:00.847Z,16.1
2018-05-15T09:45:01.362Z,16.2
2018-05-15T09:50:00.921Z,16.8
2018-05-15T09:55:00.756Z,17.0
2018-05-15T10:00:00.797Z,16.8
2018-05-15T10:05:00.797Z,16.4
2018-05-15T10:10:00.961Z,16.8
2018-05-15T10:15:00.814Z,16.9
2018-05-15T10:20:01.411Z,16.9
2018-05-15T10:25:00.776Z,17.6
2018-05-15T10:30:01.310Z,17.4
2018-05-15T10:35:00.815Z,17.2
2018-05-15T10:40:00.813Z,17.2
2018-05-15T10:45:00.846Z,17.4
2018-05-15T10:50:00.880Z,16.8
2018-05-15T10:55:00.802Z,16.3
2018-05-15T11:00:00.838Z,16.5
2018-05-15T11:05:00.862Z,15.7
2018-05-15T11:10:00.903Z,15.7
2018-05-15T11:15:00.840Z,15.2
2018-05-15T11:35:00.911Z,14.4
2018-05-15T11:40:00.936Z,14.2
2018-05-15T11:45:00.846Z,14.1
2018-05-15T11:50:04.673Z,14.4
2018-05-15T11:55:00.821Z,14.1
2018-05-15T12:00:01.402Z,14.6
2018-05-15T12:05:00.980Z,14.4
2018-05-15T12:10:01.048Z,14.6
2018-05-15T12:15:01.150Z,14.6
2018-05-15T12:20:00.915Z,14.7
2018-05-15T12:25:00.859Z,13.8
2018-05-15T12:30:00.989Z,14.0
2018-05-15T12:35:00.860Z,13.4
2018-05-15T12:40:00.930Z,13.0
2018-05-15T12:45:00.894Z,13.1
2018-05-15T12:50:00.942Z,13.1
2018-05-15T12:55:00.870Z,12.9
2018-05-15T13:00:00.995Z,13.1
2018-05-15T13:05:00.919Z,14.0
2018-05-15T13:10:00.963Z,14.1
2018-05-15T13:15:01.096Z,14.4
2018-05-15T13:20:01.001Z,14.3
2018-05-15T13:25:00.852Z,14.8
2018-05-15T13:30:00.858Z,14.0
2018-05-15T13:35:00.844Z,13.4
2018-05-15T13:40:00.982Z,13.0
2018-05-15T13:45:00.850Z,13.3
2018-05-15T13:50:00.909Z,13.1
2018-05-15T13:55:00.861Z,13.2
2018-05-15T14:00:01.010Z,13.6
2018-05-15T14:05:00.908Z,14.1
2018-05-15T14:10:00.953Z,13.8
2018-05-15T14:15:00.885Z,13.4
2018-05-15T14:20:01.017Z,13.1
2018-05-15T14:25:00.889Z,12.5
2018-05-15T14:30:00.962Z,11.9
2018-05-15T14:35:00.874Z,11.5
2018-05-15T14:40:01.134Z,11.2
2018-05-15T14:45:00.877Z,10.7
2018-05-15T14:50:00.968Z,10.5
2018-05-15T14:55:00.872Z,10.3
2018-05-15T15:00:00.947Z,10.1
2018-05-15T15:05:00.836Z,9.8
2018-05-15T15:10:00.912Z,10.0
2018-05-15T15:15:00.901Z,10.2
2018-05-15T15:20:01.052Z,10.4
2018-05-15T15:25:00.893Z,10.8
2018-05-15T15:30:00.928Z,11.6
2018-05-15T15:35:00.928Z,11.9
2018-05-15T15:40:01.130Z,11.5
2018-05-15T15:45:00.993Z,12.0
2018-05-15T15:50:00.933Z,11.9
2018-05-15T15:55:00.932Z,11.4
2018-05-15T16:00:00.933Z,11.4
2018-05-15T16:05:01.012Z,11.7
2018-05-15T16:10:01.570Z,11.4
2018-05-15T16:15:01.010Z,11.2
2018-05-15T16:20:01.014Z,11.4
2018-05-15T16:25:00.957Z,11.4
2018-05-15T16:30:01.024Z,11.7
2018-05-15T16:35:00.949Z,11.7
2018-05-15T16:40:01.150Z,12.1
2018-05-15T16:45:00.999Z,12.2
2018-05-15T16:50:01.085Z,12.5
2018-05-15T16:55:00.948Z,12.6
2018-05-15T17:00:01.077Z,12.7
2018-05-15T17:05:00.919Z,12.8
2018-05-15T17:10:01.121Z,12.6
2018-05-15T17:15:00.929Z,12.3
2018-05-15T17:20:01.052Z,12.5
2018-05-15T17:25:00.920Z,12.6
2018-05-15T17:30:01.004Z,13.0
2018-05-15T17:35:00.933Z,13.4
2018-05-15T17:40:01.135Z,13.7
2018-05-15T17:45:00.985Z,13.8
2018-05-15T17:50:01.124Z,14.0
2018-05-15T17:55:00.934Z,14.0
2018-05-15T18:00:01.742Z,14.4
2018-05-15T18:05:00.935Z,15.2
2018-05-15T18:10:01.089Z,15.0
2018-05-15T18:15:00.996Z,15.8
2018-05-15T18:20:01.060Z,16.2
2018-05-15T18:25:00.948Z,16.2
2018-05-15T18:30:01.002Z,16.1
2018-05-15T18:35:00.974Z,16.6
2018-05-15T18:40:01.001Z,16.2
2018-05-15T18:45:00.920Z,16.0
2018-05-15T18:50:01.146Z,16.6
2018-05-15T18:55:00.957Z,17.1
2018-05-15T19:00:01.073Z,17.3
2018-05-15T19:05:00.955Z,18.0
2018-05-15T19:10:01.046Z,18.6
2018-05-15T19:15:00.981Z,18.9
2018-05-15T19:20:01.085Z,18.8
2018-05-15T19:25:00.952Z,18.9
2018-05-15T19:30:01.088Z,18.7
2018-05-15T19:35:00.960Z,18.5
2018-05-15T19:40:01.028Z,18.0
2018-05-15T19:45:01.376Z,17.1
2018-05-15T19:50:01.185Z,16.9
2018-05-15T19:55:01.068Z,16.1
2018-05-15T20:00:01.120Z,15.4
2018-05-15T20:05:00.975Z,15.2
2018-05-15T20:10:01.058Z,15.5
2018-05-15T20:15:00.970Z,15.5
2018-05-15T20:20:01.027Z,15.4
2018-05-15T20:25:00.966Z,15.2
2018-05-15T20:30:01.086Z,14.8
2018-05-15T20:35:01.602Z,14.4
2018-05-15T20:40:01.046Z,13.9
2018-05-15T20:45:00.982Z,13.6
2018-05-15T20:50:01.047Z,13.2
2018-05-15T20:55:00.947Z,12.9
2018-05-15T21:00:01.163Z,12.9
2018-05-15T21:05:01.028Z,12.2
2018-05-15T21:10:01.115Z,11.9
2018-05-15T21:15:01.320Z,11.8
2018-05-15T21:20:01.092Z,11.6
2018-05-15T21:25:01.034Z,11.0
2018-05-15T21:30:01.224Z,11.0
2018-05-15T21:35:01.034Z,10.9
2018-05-15T21:40:01.135Z,10.7
2018-05-15T21:45:01.032Z,10.7
2018-05-15T21:50:01.106Z,10.9
2018-05-15T21:55:01.044Z,10.7
2018-05-15T22:00:01.104Z,10.5
2018-05-15T22:10:01.231Z,11.0
2018-05-15T22:35:01.309Z,13.8
2018-05-15T22:40:01.304Z,12.9
2018-05-15T22:45:01.174Z,12.6
2018-05-15T22:50:01.267Z,12.5
2018-05-15T22:55:01.158Z,12.4
2018-05-15T23:00:01.242Z,12.0
2018-05-15T23:25:01.686Z,15.0
2018-05-15T23:31:01.524Z,15.3
2018-05-15T23:36:01.466Z,15.7
2018-05-15T23:41:01.557Z,15.7
2018-05-15T23:46:01.429Z,15.4
2018-05-15T23:51:01.500Z,15.0
2018-05-15T23:56:01.538Z,14.5
